sensor_id;sensor_type;location;lat;lon;timestamp;P1;durP1;ratioP1;P2;durP2;ratioP2
67514;SDS011;60646;55.802;37.032;2022-10-23T00:00:39;3.08;;;1.90;;
67514;SDS011;60646;55.802;37.032;2022-10-23T00:03:05;3.70;;;2.22;;
67514;SDS011;60646;55.802;37.032;2022-10-23T00:05:31;3.60;;;2.60;;
67514;SDS011;60646;55.802;37.032;2022-10-23T00:07:58;3.30;;;2.20;;
67514;SDS011;60646;55.802;37.032;2022-10-23T00:10:25;2.72;;;1.77;;
67514;SDS011;60646;55.802;37.032;2022-10-23T00:12:52;4.22;;;2.10;;
67514;SDS011;60646;55.802;37.032;2022-10-23T00:15:19;3.75;;;2.10;;
67514;SDS011;60646;55.802;37.032;2022-10-23T00:17:46;3.03;;;2.03;;
67514;SDS011;60646;55.802;37.032;2022-10-23T00:20:14;3.10;;;2.05;;
67514;SDS011;60646;55.802;37.032;2022-10-23T00:22:41;3.88;;;2.28;;
67514;SDS011;60646;55.802;37.032;2022-10-23T00:25:07;4.75;;;2.28;;
67514;SDS011;60646;55.802;37.032;2022-10-23T00:27:34;3.53;;;2.08;;
67514;SDS011;60646;55.802;37.032;2022-10-23T00:30:00;3.70;;;1.90;;
67514;SDS011;60646;55.802;37.032;2022-10-23T00:32:26;3.72;;;2.33;;
67514;SDS011;60646;55.802;37.032;2022-10-23T00:34:52;4.80;;;2.40;;
67514;SDS011;60646;55.802;37.032;2022-10-23T00:37:18;4.05;;;2.38;;
67514;SDS011;60646;55.802;37.032;2022-10-23T00:39:45;3.55;;;1.90;;
67514;SDS011;60646;55.802;37.032;2022-10-23T00:42:17;4.50;;;2.25;;
67514;SDS011;60646;55.802;37.032;2022-10-23T00:47:10;4.05;;;2.33;;
67514;SDS011;60646;55.802;37.032;2022-10-23T00:50:34;5.28;;;2.08;;
67514;SDS011;60646;55.802;37.032;2022-10-23T00:53:01;3.03;;;2.08;;
67514;SDS011;60646;55.802;37.032;2022-10-23T00:55:28;5.22;;;2.28;;
67514;SDS011;60646;55.802;37.032;2022-10-23T00:57:55;4.28;;;2.17;;
67514;SDS011;60646;55.802;37.032;2022-10-23T01:00:25;4.00;;;2.17;;
67514;SDS011;60646;55.802;37.032;2022-10-23T01:05:21;4.38;;;2.00;;
67514;SDS011;60646;55.802;37.032;2022-10-23T01:07:53;3.33;;;1.85;;
67514;SDS011;60646;55.802;37.032;2022-10-23T01:10:31;5.15;;;2.53;;
67514;SDS011;60646;55.802;37.032;2022-10-23T01:13:14;4.03;;;2.22;;
67514;SDS011;60646;55.802;37.032;2022-10-23T01:15:51;3.88;;;2.03;;
67514;SDS011;60646;55.802;37.032;2022-10-23T01:18:24;5.10;;;2.47;;
67514;SDS011;60646;55.802;37.032;2022-10-23T01:20:58;5.00;;;2.20;;
67514;SDS011;60646;55.802;37.032;2022-10-23T01:34:05;5.57;;;2.92;;
67514;SDS011;60646;55.802;37.032;2022-10-23T01:36:43;4.28;;;2.40;;
67514;SDS011;60646;55.802;37.032;2022-10-23T01:39:29;5.00;;;2.13;;
67514;SDS011;60646;55.802;37.032;2022-10-23T01:42:03;4.63;;;2.30;;
67514;SDS011;60646;55.802;37.032;2022-10-23T01:44:35;3.78;;;2.40;;
67514;SDS011;60646;55.802;37.032;2022-10-23T01:47:06;3.87;;;2.37;;
67514;SDS011;60646;55.802;37.032;2022-10-23T01:49:46;5.05;;;2.50;;
67514;SDS011;60646;55.802;37.032;2022-10-23T01:52:15;5.43;;;2.60;;
67514;SDS011;60646;55.802;37.032;2022-10-23T01:54:44;4.20;;;2.33;;
67514;SDS011;60646;55.802;37.032;2022-10-23T01:57:13;4.63;;;2.20;;
67514;SDS011;60646;55.802;37.032;2022-10-23T01:59:49;5.00;;;2.85;;
67514;SDS011;60646;55.802;37.032;2022-10-23T02:02:19;4.22;;;2.38;;
67514;SDS011;60646;55.802;37.032;2022-10-23T02:04:49;4.43;;;2.72;;
67514;SDS011;60646;55.802;37.032;2022-10-23T02:07:21;4.97;;;2.75;;
67514;SDS011;60646;55.802;37.032;2022-10-23T02:09:47;6.53;;;2.97;;
67514;SDS011;60646;55.802;37.032;2022-10-23T02:12:17;6.93;;;3.25;;
67514;SDS011;60646;55.802;37.032;2022-10-23T02:15:25;5.30;;;2.83;;
67514;SDS011;60646;55.802;37.032;2022-10-23T02:18:03;6.00;;;3.08;;
67514;SDS011;60646;55.802;37.032;2022-10-23T02:20:52;5.28;;;3.08;;
67514;SDS011;60646;55.802;37.032;2022-10-23T02:26:05;9.35;;;3.10;;
67514;SDS011;60646;55.802;37.032;2022-10-23T02:28:48;5.57;;;2.88;;
67514;SDS011;60646;55.802;37.032;2022-10-23T02:31:17;4.22;;;2.58;;
67514;SDS011;60646;55.802;37.032;2022-10-23T02:33:46;5.68;;;3.10;;
67514;SDS011;60646;55.802;37.032;2022-10-23T02:36:13;4.43;;;2.58;;
67514;SDS011;60646;55.802;37.032;2022-10-23T02:38:41;5.90;;;2.90;;
67514;SDS011;60646;55.802;37.032;2022-10-23T02:49:22;5.70;;;2.67;;
67514;SDS011;60646;55.802;37.032;2022-10-23T02:52:15;5.53;;;3.20;;
67514;SDS011;60646;55.802;37.032;2022-10-23T02:57:45;5.80;;;2.60;;
67514;SDS011;60646;55.802;37.032;2022-10-23T03:00:18;5.13;;;2.88;;
67514;SDS011;60646;55.802;37.032;2022-10-23T03:03:08;4.30;;;2.47;;
67514;SDS011;60646;55.802;37.032;2022-10-23T03:05:37;3.97;;;2.35;;
67514;SDS011;60646;55.802;37.032;2022-10-23T03:08:08;5.20;;;3.10;;
67514;SDS011;60646;55.802;37.032;2022-10-23T03:10:36;4.95;;;3.10;;
67514;SDS011;60646;55.802;37.032;2022-10-23T03:13:02;5.43;;;2.65;;
67514;SDS011;60646;55.802;37.032;2022-10-23T03:15:36;4.82;;;2.53;;
67514;SDS011;60646;55.802;37.032;2022-10-23T03:18:02;5.10;;;2.85;;
67514;SDS011;60646;55.802;37.032;2022-10-23T03:20:28;5.07;;;2.70;;
67514;SDS011;60646;55.802;37.032;2022-10-23T03:22:54;7.35;;;3.38;;
67514;SDS011;60646;55.802;37.032;2022-10-23T03:25:20;5.28;;;2.78;;
67514;SDS011;60646;55.802;37.032;2022-10-23T03:27:46;6.07;;;3.03;;
67514;SDS011;60646;55.802;37.032;2022-10-23T03:30:14;5.47;;;2.75;;
67514;SDS011;60646;55.802;37.032;2022-10-23T03:32:40;6.93;;;3.17;;
67514;SDS011;60646;55.802;37.032;2022-10-23T03:35:06;7.07;;;2.90;;
67514;SDS011;60646;55.802;37.032;2022-10-23T03:37:32;6.05;;;3.40;;
67514;SDS011;60646;55.802;37.032;2022-10-23T03:39:59;5.80;;;2.97;;
67514;SDS011;60646;55.802;37.032;2022-10-23T03:42:29;4.93;;;2.90;;
67514;SDS011;60646;55.802;37.032;2022-10-23T03:44:54;5.65;;;3.00;;
67514;SDS011;60646;55.802;37.032;2022-10-23T03:47:20;5.53;;;3.38;;
67514;SDS011;60646;55.802;37.032;2022-10-23T03:49:46;6.85;;;3.38;;
67514;SDS011;60646;55.802;37.032;2022-10-23T03:52:12;6.70;;;3.08;;
67514;SDS011;60646;55.802;37.032;2022-10-23T03:54:38;7.70;;;3.75;;
67514;SDS011;60646;55.802;37.032;2022-10-23T03:57:03;7.43;;;3.75;;
67514;SDS011;60646;55.802;37.032;2022-10-23T03:59:29;6.63;;;3.58;;
67514;SDS011;60646;55.802;37.032;2022-10-23T04:01:57;6.82;;;3.70;;
67514;SDS011;60646;55.802;37.032;2022-10-23T04:04:23;6.93;;;3.70;;
67514;SDS011;60646;55.802;37.032;2022-10-23T04:06:49;6.32;;;3.22;;
67514;SDS011;60646;55.802;37.032;2022-10-23T04:09:17;6.78;;;3.40;;
67514;SDS011;60646;55.802;37.032;2022-10-23T04:11:42;8.05;;;3.63;;
67514;SDS011;60646;55.802;37.032;2022-10-23T04:14:10;6.18;;;3.47;;
67514;SDS011;60646;55.802;37.032;2022-10-23T04:16:37;7.35;;;3.92;;
67514;SDS011;60646;55.802;37.032;2022-10-23T04:19:02;7.70;;;3.88;;
67514;SDS011;60646;55.802;37.032;2022-10-23T04:21:28;7.38;;;3.70;;
67514;SDS011;60646;55.802;37.032;2022-10-23T04:23:54;6.35;;;3.30;;
67514;SDS011;60646;55.802;37.032;2022-10-23T04:26:21;6.50;;;3.40;;
67514;SDS011;60646;55.802;37.032;2022-10-23T04:28:48;8.68;;;3.67;;
67514;SDS011;60646;55.802;37.032;2022-10-23T04:31:14;8.13;;;3.63;;
67514;SDS011;60646;55.802;37.032;2022-10-23T04:33:41;6.93;;;3.38;;
67514;SDS011;60646;55.802;37.032;2022-10-23T04:36:07;6.13;;;3.47;;
67514;SDS011;60646;55.802;37.032;2022-10-23T04:38:34;8.27;;;3.58;;
67514;SDS011;60646;55.802;37.032;2022-10-23T04:41:00;7.50;;;3.67;;
67514;SDS011;60646;55.802;37.032;2022-10-23T04:43:28;7.00;;;4.05;;
67514;SDS011;60646;55.802;37.032;2022-10-23T04:45:55;6.22;;;3.80;;
67514;SDS011;60646;55.802;37.032;2022-10-23T04:48:20;9.38;;;4.18;;
67514;SDS011;60646;55.802;37.032;2022-10-23T04:51:13;7.32;;;3.75;;
67514;SDS011;60646;55.802;37.032;2022-10-23T04:54:07;6.60;;;3.28;;
67514;SDS011;60646;55.802;37.032;2022-10-23T04:56:48;8.43;;;4.30;;
67514;SDS011;60646;55.802;37.032;2022-10-23T04:59:17;7.10;;;3.50;;
67514;SDS011;60646;55.802;37.032;2022-10-23T05:01:43;8.77;;;4.55;;
67514;SDS011;60646;55.802;37.032;2022-10-23T05:04:09;9.00;;;4.07;;
67514;SDS011;60646;55.802;37.032;2022-10-23T05:06:54;10.18;;;3.95;;
67514;SDS011;60646;55.802;37.032;2022-10-23T05:09:33;10.48;;;4.82;;
67514;SDS011;60646;55.802;37.032;2022-10-23T05:12:20;8.85;;;3.75;;
67514;SDS011;60646;55.802;37.032;2022-10-23T05:14:47;8.10;;;4.18;;
67514;SDS011;60646;55.802;37.032;2022-10-23T05:17:16;10.85;;;4.15;;
67514;SDS011;60646;55.802;37.032;2022-10-23T05:19:56;8.15;;;4.15;;
67514;SDS011;60646;55.802;37.032;2022-10-23T05:22:26;7.43;;;3.78;;
67514;SDS011;60646;55.802;37.032;2022-10-23T05:24:56;7.60;;;4.00;;
67514;SDS011;60646;55.802;37.032;2022-10-23T05:27:24;7.93;;;4.18;;
67514;SDS011;60646;55.802;37.032;2022-10-23T05:29:52;8.63;;;4.38;;
67514;SDS011;60646;55.802;37.032;2022-10-23T05:32:25;9.32;;;4.28;;
67514;SDS011;60646;55.802;37.032;2022-10-23T05:34:53;8.15;;;3.90;;
67514;SDS011;60646;55.802;37.032;2022-10-23T05:37:26;7.70;;;3.80;;
67514;SDS011;60646;55.802;37.032;2022-10-23T05:40:02;8.57;;;3.88;;
67514;SDS011;60646;55.802;37.032;2022-10-23T05:42:38;9.52;;;4.22;;
67514;SDS011;60646;55.802;37.032;2022-10-23T05:45:04;6.82;;;3.83;;
67514;SDS011;60646;55.802;37.032;2022-10-23T05:47:57;8.30;;;4.20;;
67514;SDS011;60646;55.802;37.032;2022-10-23T05:50:47;7.15;;;3.83;;
67514;SDS011;60646;55.802;37.032;2022-10-23T05:53:22;7.28;;;4.10;;
67514;SDS011;60646;55.802;37.032;2022-10-23T05:55:55;7.13;;;4.25;;
67514;SDS011;60646;55.802;37.032;2022-10-23T05:58:45;6.90;;;3.67;;
67514;SDS011;60646;55.802;37.032;2022-10-23T06:01:44;6.60;;;4.00;;
67514;SDS011;60646;55.802;37.032;2022-10-23T06:04:14;10.43;;;4.65;;
67514;SDS011;60646;55.802;37.032;2022-10-23T06:07:01;9.40;;;4.25;;
67514;SDS011;60646;55.802;37.032;2022-10-23T06:09:28;8.55;;;4.20;;
67514;SDS011;60646;55.802;37.032;2022-10-23T06:11:56;5.80;;;3.55;;
67514;SDS011;60646;55.802;37.032;2022-10-23T06:14:22;7.30;;;4.47;;
67514;SDS011;60646;55.802;37.032;2022-10-23T06:16:50;8.88;;;3.97;;
67514;SDS011;60646;55.802;37.032;2022-10-23T06:19:17;9.18;;;4.57;;
67514;SDS011;60646;55.802;37.032;2022-10-23T06:21:43;8.00;;;4.03;;
67514;SDS011;60646;55.802;37.032;2022-10-23T06:24:12;7.80;;;4.03;;
67514;SDS011;60646;55.802;37.032;2022-10-23T06:26:43;7.30;;;4.15;;
67514;SDS011;60646;55.802;37.032;2022-10-23T06:29:16;9.75;;;4.53;;
67514;SDS011;60646;55.802;37.032;2022-10-23T06:31:42;9.82;;;5.07;;
67514;SDS011;60646;55.802;37.032;2022-10-23T06:34:09;8.73;;;4.25;;
67514;SDS011;60646;55.802;37.032;2022-10-23T06:36:36;6.75;;;3.85;;
67514;SDS011;60646;55.802;37.032;2022-10-23T06:39:10;9.52;;;4.22;;
67514;SDS011;60646;55.802;37.032;2022-10-23T06:41:59;6.72;;;3.75;;
67514;SDS011;60646;55.802;37.032;2022-10-23T06:44:51;8.85;;;4.10;;
67514;SDS011;60646;55.802;37.032;2022-10-23T06:47:35;8.18;;;3.95;;
67514;SDS011;60646;55.802;37.032;2022-10-23T06:50:35;9.20;;;4.43;;
67514;SDS011;60646;55.802;37.032;2022-10-23T06:53:05;8.15;;;3.88;;
67514;SDS011;60646;55.802;37.032;2022-10-23T06:55:34;9.20;;;4.03;;
67514;SDS011;60646;55.802;37.032;2022-10-23T06:58:01;8.10;;;4.38;;
67514;SDS011;60646;55.802;37.032;2022-10-23T07:00:27;9.20;;;3.55;;
67514;SDS011;60646;55.802;37.032;2022-10-23T07:02:53;9.07;;;4.13;;
67514;SDS011;60646;55.802;37.032;2022-10-23T07:05:21;6.57;;;3.80;;
67514;SDS011;60646;55.802;37.032;2022-10-23T07:07:47;9.45;;;4.45;;
67514;SDS011;60646;55.802;37.032;2022-10-23T07:10:18;8.88;;;4.53;;
67514;SDS011;60646;55.802;37.032;2022-10-23T07:12:46;8.02;;;4.57;;
67514;SDS011;60646;55.802;37.032;2022-10-23T07:15:36;9.52;;;4.75;;
67514;SDS011;60646;55.802;37.032;2022-10-23T07:18:04;11.88;;;4.50;;
67514;SDS011;60646;55.802;37.032;2022-10-23T07:20:57;8.40;;;4.60;;
67514;SDS011;60646;55.802;37.032;2022-10-23T07:23:23;11.40;;;4.05;;
67514;SDS011;60646;55.802;37.032;2022-10-23T07:25:49;8.18;;;4.35;;
67514;SDS011;60646;55.802;37.032;2022-10-23T07:28:20;8.07;;;4.13;;
67514;SDS011;60646;55.802;37.032;2022-10-23T07:30:54;10.57;;;4.47;;
67514;SDS011;60646;55.802;37.032;2022-10-23T07:33:22;8.45;;;4.10;;
67514;SDS011;60646;55.802;37.032;2022-10-23T07:35:59;9.18;;;4.28;;
67514;SDS011;60646;55.802;37.032;2022-10-23T07:38:27;8.35;;;4.13;;
67514;SDS011;60646;55.802;37.032;2022-10-23T07:40:55;8.05;;;4.03;;
67514;SDS011;60646;55.802;37.032;2022-10-23T07:43:22;7.35;;;3.83;;
67514;SDS011;60646;55.802;37.032;2022-10-23T07:45:53;8.20;;;4.13;;
67514;SDS011;60646;55.802;37.032;2022-10-23T07:51:14;7.10;;;3.78;;
67514;SDS011;60646;55.802;37.032;2022-10-23T07:53:46;6.18;;;3.72;;
67514;SDS011;60646;55.802;37.032;2022-10-23T07:56:32;6.22;;;3.47;;
67514;SDS011;60646;55.802;37.032;2022-10-23T07:59:19;8.55;;;4.10;;
67514;SDS011;60646;55.802;37.032;2022-10-23T08:01:51;8.80;;;4.15;;
67514;SDS011;60646;55.802;37.032;2022-10-23T08:04:22;10.20;;;5.10;;
67514;SDS011;60646;55.802;37.032;2022-10-23T08:09:36;11.05;;;4.30;;
67514;SDS011;60646;55.802;37.032;2022-10-23T08:12:06;8.82;;;4.10;;
67514;SDS011;60646;55.802;37.032;2022-10-23T08:14:33;8.10;;;4.20;;
67514;SDS011;60646;55.802;37.032;2022-10-23T08:17:09;9.07;;;4.63;;
67514;SDS011;60646;55.802;37.032;2022-10-23T08:20:16;7.82;;;4.10;;
67514;SDS011;60646;55.802;37.032;2022-10-23T08:23:14;10.18;;;4.80;;
67514;SDS011;60646;55.802;37.032;2022-10-23T08:25:52;9.63;;;4.63;;
67514;SDS011;60646;55.802;37.032;2022-10-23T08:28:35;9.13;;;4.78;;
67514;SDS011;60646;55.802;37.032;2022-10-23T08:31:06;10.52;;;4.75;;
67514;SDS011;60646;55.802;37.032;2022-10-23T08:33:33;9.27;;;4.18;;
67514;SDS011;60646;55.802;37.032;2022-10-23T08:35:59;8.40;;;4.75;;
67514;SDS011;60646;55.802;37.032;2022-10-23T08:38:30;15.30;;;6.43;;
67514;SDS011;60646;55.802;37.032;2022-10-23T08:40:58;11.15;;;5.18;;
67514;SDS011;60646;55.802;37.032;2022-10-23T08:43:47;9.77;;;5.03;;
67514;SDS011;60646;55.802;37.032;2022-10-23T08:46:41;9.95;;;5.05;;
67514;SDS011;60646;55.802;37.032;2022-10-23T08:52:25;9.75;;;4.75;;
67514;SDS011;60646;55.802;37.032;2022-10-23T08:55:30;12.35;;;5.40;;
67514;SDS011;60646;55.802;37.032;2022-10-23T08:58:10;11.60;;;5.47;;
67514;SDS011;60646;55.802;37.032;2022-10-23T09:00:43;8.30;;;4.28;;
67514;SDS011;60646;55.802;37.032;2022-10-23T09:03:16;12.88;;;4.82;;
67514;SDS011;60646;55.802;37.032;2022-10-23T09:11:20;10.38;;;5.15;;
67514;SDS011;60646;55.802;37.032;2022-10-23T09:19:16;15.05;;;5.07;;
67514;SDS011;60646;55.802;37.032;2022-10-23T09:22:28;9.45;;;4.43;;
67514;SDS011;60646;55.802;37.032;2022-10-23T09:24:58;11.68;;;5.00;;
67514;SDS011;60646;55.802;37.032;2022-10-23T09:27:24;15.15;;;5.15;;
67514;SDS011;60646;55.802;37.032;2022-10-23T09:29:51;13.60;;;5.63;;
67514;SDS011;60646;55.802;37.032;2022-10-23T09:32:20;12.95;;;4.97;;
67514;SDS011;60646;55.802;37.032;2022-10-23T09:35:00;15.52;;;5.50;;
67514;SDS011;60646;55.802;37.032;2022-10-23T09:37:29;19.05;;;5.85;;
67514;SDS011;60646;55.802;37.032;2022-10-23T09:43:12;10.93;;;5.18;;
67514;SDS011;60646;55.802;37.032;2022-10-23T09:45:56;13.80;;;5.60;;
67514;SDS011;60646;55.802;37.032;2022-10-23T09:48:34;12.30;;;5.10;;
67514;SDS011;60646;55.802;37.032;2022-10-23T09:51:01;11.70;;;5.22;;
67514;SDS011;60646;55.802;37.032;2022-10-23T09:53:31;14.23;;;5.82;;
67514;SDS011;60646;55.802;37.032;2022-10-23T09:56:03;13.00;;;5.35;;
67514;SDS011;60646;55.802;37.032;2022-10-23T09:58:34;9.82;;;4.70;;
67514;SDS011;60646;55.802;37.032;2022-10-23T10:01:03;12.20;;;5.45;;
67514;SDS011;60646;55.802;37.032;2022-10-23T10:03:48;11.95;;;4.95;;
67514;SDS011;60646;55.802;37.032;2022-10-23T10:06:21;10.55;;;4.53;;
67514;SDS011;60646;55.802;37.032;2022-10-23T10:09:09;14.80;;;5.30;;
67514;SDS011;60646;55.802;37.032;2022-10-23T10:11:40;13.43;;;4.40;;
67514;SDS011;60646;55.802;37.032;2022-10-23T10:17:27;12.13;;;5.13;;
67514;SDS011;60646;55.802;37.032;2022-10-23T10:30:46;10.90;;;5.03;;
67514;SDS011;60646;55.802;37.032;2022-10-23T10:33:24;14.10;;;6.00;;
67514;SDS011;60646;55.802;37.032;2022-10-23T10:35:58;13.15;;;4.95;;
67514;SDS011;60646;55.802;37.032;2022-10-23T10:38:43;13.32;;;4.90;;
67514;SDS011;60646;55.802;37.032;2022-10-23T10:52:55;13.25;;;4.88;;
67514;SDS011;60646;55.802;37.032;2022-10-23T10:58:00;10.10;;;4.10;;
67514;SDS011;60646;55.802;37.032;2022-10-23T11:00:30;14.32;;;5.00;;
67514;SDS011;60646;55.802;37.032;2022-10-23T11:03:35;13.98;;;4.60;;
67514;SDS011;60646;55.802;37.032;2022-10-23T11:06:08;9.52;;;3.95;;
67514;SDS011;60646;55.802;37.032;2022-10-23T11:08:39;13.35;;;5.10;;
67514;SDS011;60646;55.802;37.032;2022-10-23T11:13:41;15.30;;;4.85;;
67514;SDS011;60646;55.802;37.032;2022-10-23T11:16:14;13.95;;;4.72;;
67514;SDS011;60646;55.802;37.032;2022-10-23T11:18:43;11.63;;;5.03;;
67514;SDS011;60646;55.802;37.032;2022-10-23T11:34:51;10.25;;;4.57;;
67514;SDS011;60646;55.802;37.032;2022-10-23T11:37:25;12.30;;;4.63;;
67514;SDS011;60646;55.802;37.032;2022-10-23T11:39:59;11.02;;;4.32;;
67514;SDS011;60646;55.802;37.032;2022-10-23T11:48:36;11.68;;;5.82;;
67514;SDS011;60646;55.802;37.032;2022-10-23T11:52:04;11.20;;;4.63;;
67514;SDS011;60646;55.802;37.032;2022-10-23T11:54:30;9.82;;;4.97;;
67514;SDS011;60646;55.802;37.032;2022-10-23T12:03:00;10.55;;;5.00;;
67514;SDS011;60646;55.802;37.032;2022-10-23T12:06:13;10.73;;;4.82;;
67514;SDS011;60646;55.802;37.032;2022-10-23T12:13:03;12.35;;;5.97;;
67514;SDS011;60646;55.802;37.032;2022-10-23T12:18:44;13.18;;;6.72;;
67514;SDS011;60646;55.802;37.032;2022-10-23T12:21:36;16.40;;;6.05;;
67514;SDS011;60646;55.802;37.032;2022-10-23T12:30:41;13.05;;;5.18;;
67514;SDS011;60646;55.802;37.032;2022-10-23T12:33:16;11.55;;;5.32;;
67514;SDS011;60646;55.802;37.032;2022-10-23T12:42:53;12.25;;;5.07;;
67514;SDS011;60646;55.802;37.032;2022-10-23T12:46:02;11.57;;;5.78;;
67514;SDS011;60646;55.802;37.032;2022-10-23T12:49:16;14.00;;;5.95;;
67514;SDS011;60646;55.802;37.032;2022-10-23T12:52:24;12.07;;;5.50;;
67514;SDS011;60646;55.802;37.032;2022-10-23T12:55:11;14.30;;;6.10;;
67514;SDS011;60646;55.802;37.032;2022-10-23T12:57:58;12.13;;;6.03;;
67514;SDS011;60646;55.802;37.032;2022-10-23T13:03:55;11.13;;;5.53;;
67514;SDS011;60646;55.802;37.032;2022-10-23T13:07:01;13.60;;;6.45;;
67514;SDS011;60646;55.802;37.032;2022-10-23T13:09:40;12.20;;;5.43;;
67514;SDS011;60646;55.802;37.032;2022-10-23T13:15:21;16.50;;;6.53;;
67514;SDS011;60646;55.802;37.032;2022-10-23T13:25:52;11.07;;;5.60;;
67514;SDS011;60646;55.802;37.032;2022-10-23T13:28:24;13.27;;;5.85;;
67514;SDS011;60646;55.802;37.032;2022-10-23T13:30:57;13.65;;;5.55;;
67514;SDS011;60646;55.802;37.032;2022-10-23T13:33:49;13.15;;;6.15;;
67514;SDS011;60646;55.802;37.032;2022-10-23T13:36:25;12.23;;;5.80;;
67514;SDS011;60646;55.802;37.032;2022-10-23T13:41:40;12.25;;;6.05;;
67514;SDS011;60646;55.802;37.032;2022-10-23T13:44:18;15.40;;;7.03;;
67514;SDS011;60646;55.802;37.032;2022-10-23T13:46:46;11.93;;;6.15;;
67514;SDS011;60646;55.802;37.032;2022-10-23T13:49:12;13.82;;;6.40;;
67514;SDS011;60646;55.802;37.032;2022-10-23T13:51:43;12.95;;;5.80;;
67514;SDS011;60646;55.802;37.032;2022-10-23T13:54:15;11.80;;;5.20;;
67514;SDS011;60646;55.802;37.032;2022-10-23T13:56:52;16.00;;;5.72;;
67514;SDS011;60646;55.802;37.032;2022-10-23T13:59:18;13.70;;;5.82;;
67514;SDS011;60646;55.802;37.032;2022-10-23T14:02:25;11.15;;;5.85;;
67514;SDS011;60646;55.802;37.032;2022-10-23T14:04:51;13.73;;;6.75;;
67514;SDS011;60646;55.802;37.032;2022-10-23T14:07:16;12.48;;;6.20;;
67514;SDS011;60646;55.802;37.032;2022-10-23T14:09:42;12.80;;;5.82;;
67514;SDS011;60646;55.802;37.032;2022-10-23T14:12:08;13.15;;;5.75;;
67514;SDS011;60646;55.802;37.032;2022-10-23T14:14:36;12.93;;;6.45;;
67514;SDS011;60646;55.802;37.032;2022-10-23T14:17:02;15.60;;;6.18;;
67514;SDS011;60646;55.802;37.032;2022-10-23T14:19:28;13.88;;;6.20;;
67514;SDS011;60646;55.802;37.032;2022-10-23T14:21:53;13.65;;;5.95;;
67514;SDS011;60646;55.802;37.032;2022-10-23T14:24:19;14.68;;;6.28;;
67514;SDS011;60646;55.802;37.032;2022-10-23T14:26:45;12.60;;;6.50;;
67514;SDS011;60646;55.802;37.032;2022-10-23T14:29:10;13.50;;;6.18;;
67514;SDS011;60646;55.802;37.032;2022-10-23T14:31:36;14.43;;;6.63;;
67514;SDS011;60646;55.802;37.032;2022-10-23T14:34:02;15.82;;;7.13;;
67514;SDS011;60646;55.802;37.032;2022-10-23T14:36:28;13.43;;;6.45;;
67514;SDS011;60646;55.802;37.032;2022-10-23T14:38:57;14.82;;;6.72;;
67514;SDS011;60646;55.802;37.032;2022-10-23T14:41:23;17.55;;;7.93;;
67514;SDS011;60646;55.802;37.032;2022-10-23T14:43:50;15.10;;;6.35;;
67514;SDS011;60646;55.802;37.032;2022-10-23T14:46:19;14.95;;;6.93;;
67514;SDS011;60646;55.802;37.032;2022-10-23T14:48:46;15.70;;;6.65;;
67514;SDS011;60646;55.802;37.032;2022-10-23T14:53:43;15.77;;;6.72;;
67514;SDS011;60646;55.802;37.032;2022-10-23T14:56:09;14.18;;;7.22;;
67514;SDS011;60646;55.802;37.032;2022-10-23T14:58:35;11.95;;;6.13;;
67514;SDS011;60646;55.802;37.032;2022-10-23T15:01:00;15.32;;;6.00;;
67514;SDS011;60646;55.802;37.032;2022-10-23T15:03:27;13.52;;;6.13;;
67514;SDS011;60646;55.802;37.032;2022-10-23T15:05:53;16.48;;;7.28;;
67514;SDS011;60646;55.802;37.032;2022-10-23T15:08:20;14.32;;;6.40;;
67514;SDS011;60646;55.802;37.032;2022-10-23T15:10:47;14.77;;;6.50;;
67514;SDS011;60646;55.802;37.032;2022-10-23T15:13:13;15.30;;;6.85;;
67514;SDS011;60646;55.802;37.032;2022-10-23T15:15:38;11.75;;;6.53;;
67514;SDS011;60646;55.802;37.032;2022-10-23T15:18:04;14.07;;;5.82;;
67514;SDS011;60646;55.802;37.032;2022-10-23T15:20:30;11.40;;;6.18;;
67514;SDS011;60646;55.802;37.032;2022-10-23T15:22:56;12.13;;;6.25;;
67514;SDS011;60646;55.802;37.032;2022-10-23T15:25:22;10.43;;;5.57;;
67514;SDS011;60646;55.802;37.032;2022-10-23T15:27:47;10.93;;;5.20;;
67514;SDS011;60646;55.802;37.032;2022-10-23T15:30:13;11.05;;;5.57;;
67514;SDS011;60646;55.802;37.032;2022-10-23T15:32:39;11.15;;;5.32;;
67514;SDS011;60646;55.802;37.032;2022-10-23T15:35:25;10.25;;;5.60;;
67514;SDS011;60646;55.802;37.032;2022-10-23T15:37:51;13.75;;;5.70;;
67514;SDS011;60646;55.802;37.032;2022-10-23T15:40:16;11.95;;;5.88;;
67514;SDS011;60646;55.802;37.032;2022-10-23T15:42:42;14.50;;;5.53;;
67514;SDS011;60646;55.802;37.032;2022-10-23T15:45:08;19.63;;;9.48;;
67514;SDS011;60646;55.802;37.032;2022-10-23T15:47:35;21.15;;;9.48;;
67514;SDS011;60646;55.802;37.032;2022-10-23T15:50:00;24.15;;;10.48;;
67514;SDS011;60646;55.802;37.032;2022-10-23T15:52:28;19.67;;;9.00;;
67514;SDS011;60646;55.802;37.032;2022-10-23T15:55:14;16.63;;;8.20;;
67514;SDS011;60646;55.802;37.032;2022-10-23T15:57:40;14.85;;;7.28;;
67514;SDS011;60646;55.802;37.032;2022-10-23T16:00:06;10.88;;;5.60;;
67514;SDS011;60646;55.802;37.032;2022-10-23T16:02:34;10.88;;;6.15;;
67514;SDS011;60646;55.802;37.032;2022-10-23T16:05:00;16.13;;;8.05;;
67514;SDS011;60646;55.802;37.032;2022-10-23T16:07:26;21.85;;;12.35;;
67514;SDS011;60646;55.802;37.032;2022-10-23T16:09:52;16.75;;;7.70;;
67514;SDS011;60646;55.802;37.032;2022-10-23T16:12:17;15.93;;;7.38;;
67514;SDS011;60646;55.802;37.032;2022-10-23T16:14:43;14.90;;;7.47;;
67514;SDS011;60646;55.802;37.032;2022-10-23T16:17:09;13.77;;;6.80;;
67514;SDS011;60646;55.802;37.032;2022-10-23T16:19:37;13.93;;;7.40;;
67514;SDS011;60646;55.802;37.032;2022-10-23T16:22:03;16.48;;;8.23;;
67514;SDS011;60646;55.802;37.032;2022-10-23T16:24:29;14.77;;;8.20;;
67514;SDS011;60646;55.802;37.032;2022-10-23T16:26:55;12.65;;;6.28;;
67514;SDS011;60646;55.802;37.032;2022-10-23T16:29:22;11.25;;;5.53;;
67514;SDS011;60646;55.802;37.032;2022-10-23T16:31:50;8.98;;;4.97;;
67514;SDS011;60646;55.802;37.032;2022-10-23T16:34:17;8.98;;;4.53;;
67514;SDS011;60646;55.802;37.032;2022-10-23T16:36:43;8.77;;;4.60;;
67514;SDS011;60646;55.802;37.032;2022-10-23T16:39:41;7.75;;;4.80;;
67514;SDS011;60646;55.802;37.032;2022-10-23T16:42:25;9.32;;;4.43;;
67514;SDS011;60646;55.802;37.032;2022-10-23T16:45:07;5.70;;;3.63;;
67514;SDS011;60646;55.802;37.032;2022-10-23T16:47:34;6.22;;;3.55;;
67514;SDS011;60646;55.802;37.032;2022-10-23T16:49:59;7.63;;;3.78;;
67514;SDS011;60646;55.802;37.032;2022-10-23T16:52:26;6.65;;;3.95;;
67514;SDS011;60646;55.802;37.032;2022-10-23T16:54:52;8.00;;;4.38;;
67514;SDS011;60646;55.802;37.032;2022-10-23T16:57:18;9.13;;;4.13;;
67514;SDS011;60646;55.802;37.032;2022-10-23T16:59:44;8.57;;;4.18;;
67514;SDS011;60646;55.802;37.032;2022-10-23T17:02:13;6.60;;;3.72;;
67514;SDS011;60646;55.802;37.032;2022-10-23T17:04:57;6.88;;;4.07;;
67514;SDS011;60646;55.802;37.032;2022-10-23T17:07:24;7.47;;;4.15;;
67514;SDS011;60646;55.802;37.032;2022-10-23T17:09:50;6.25;;;3.72;;
67514;SDS011;60646;55.802;37.032;2022-10-23T17:12:16;6.00;;;3.47;;
67514;SDS011;60646;55.802;37.032;2022-10-23T17:14:42;8.45;;;3.80;;
67514;SDS011;60646;55.802;37.032;2022-10-23T17:17:08;6.68;;;3.55;;
67514;SDS011;60646;55.802;37.032;2022-10-23T17:22:26;5.93;;;3.58;;
67514;SDS011;60646;55.802;37.032;2022-10-23T17:24:52;6.63;;;3.72;;
67514;SDS011;60646;55.802;37.032;2022-10-23T17:27:17;6.95;;;3.75;;
67514;SDS011;60646;55.802;37.032;2022-10-23T17:29:44;7.32;;;3.72;;
67514;SDS011;60646;55.802;37.032;2022-10-23T17:32:13;6.43;;;3.72;;